createdAt,value
2019-03-18T00:01:18.148Z,7.87
2019-03-18T00:03:51.612Z,7.67
2019-03-18T00:06:26.576Z,8.80
2019-03-18T00:09:00.171Z,7.00
2019-03-18T00:11:34.219Z,7.53
2019-03-18T00:14:08.025Z,8.03
2019-03-18T00:16:42.598Z,7.33
2019-03-18T00:19:16.297Z,8.43
2019-03-18T00:21:51.001Z,7.33
2019-03-18T00:24:24.710Z,9.87
2019-03-18T00:26:59.673Z,9.43
2019-03-18T00:29:33.696Z,8.90
2019-03-18T00:32:07.843Z,8.53
2019-03-18T00:34:42.812Z,8.90
2019-03-18T00:37:17.453Z,8.17
2019-03-18T00:39:51.922Z,7.70
2019-03-18T00:42:24.692Z,8.77
2019-03-18T00:44:58.777Z,7.63
2019-03-18T00:47:32.821Z,9.17
2019-03-18T00:50:17.186Z,7.27
2019-03-18T00:52:51.322Z,7.23
2019-03-18T00:55:25.281Z,8.40
2019-03-18T00:58:02.199Z,7.87
2019-03-18T01:00:38.290Z,7.83
2019-03-18T01:03:12.300Z,7.50
2019-03-18T01:05:46.048Z,8.57
2019-03-18T01:08:20.362Z,8.37
2019-03-18T01:10:56.774Z,8.27
2019-03-18T01:13:30.607Z,9.33
2019-03-18T01:16:04.196Z,8.93
2019-03-18T01:18:38.705Z,10.67
2019-03-18T01:21:12.466Z,9.70
2019-03-18T01:23:47.205Z,10.07
2019-03-18T01:26:20.770Z,10.53
2019-03-18T01:28:54.882Z,10.17
2019-03-18T01:31:28.505Z,9.83
2019-03-18T01:34:02.911Z,9.80
2019-03-18T01:36:39.083Z,9.57
2019-03-18T01:39:19.421Z,9.83
2019-03-18T01:41:53.018Z,9.03
2019-03-18T01:44:27.151Z,10.10
2019-03-18T01:47:01.037Z,9.33
2019-03-18T01:49:35.242Z,10.00
2019-03-18T01:52:08.902Z,10.30
2019-03-18T01:54:43.776Z,10.70
2019-03-18T01:57:17.615Z,9.87
2019-03-18T01:59:54.269Z,10.33
2019-03-18T02:02:27.892Z,12.13
2019-03-18T02:05:02.049Z,11.03
2019-03-18T02:07:35.502Z,12.03
2019-03-18T02:10:11.238Z,11.77
2019-03-18T02:12:44.807Z,11.80
2019-03-18T02:15:19.084Z,12.50
2019-03-18T02:17:54.826Z,12.57
2019-03-18T02:20:28.845Z,13.33
2019-03-18T02:23:02.420Z,13.07
2019-03-18T02:25:36.683Z,14.00
2019-03-18T02:28:10.347Z,13.67
2019-03-18T02:30:44.418Z,13.97
2019-03-18T02:33:17.862Z,13.97
2019-03-18T02:35:52.040Z,13.43
2019-03-18T02:38:25.781Z,13.87
2019-03-18T02:40:59.689Z,16.67
2019-03-18T02:43:35.426Z,14.53
2019-03-18T02:46:10.747Z,15.13
2019-03-18T02:48:46.653Z,14.73
2019-03-18T02:51:20.772Z,15.03
2019-03-18T02:53:56.425Z,13.63
2019-03-18T02:56:30.312Z,15.50
2019-03-18T02:59:04.047Z,13.37
2019-03-18T03:01:41.218Z,13.13
2019-03-18T03:04:14.748Z,13.37
2019-03-18T03:06:48.392Z,12.83
2019-03-18T03:09:22.022Z,12.77
2019-03-18T03:11:56.186Z,13.00
2019-03-18T03:14:29.739Z,13.63
2019-03-18T03:17:03.513Z,12.67
2019-03-18T03:19:37.026Z,13.27
2019-03-18T03:22:11.216Z,12.63
2019-03-18T03:24:44.380Z,11.67
2019-03-18T03:27:18.611Z,13.47
2019-03-18T03:29:53.686Z,12.80
2019-03-18T03:32:27.728Z,12.40
2019-03-18T03:35:01.655Z,11.67
2019-03-18T03:37:36.090Z,11.77
2019-03-18T03:40:09.682Z,12.63
2019-03-18T03:42:43.597Z,12.27
2019-03-18T03:45:17.203Z,12.00
2019-03-18T03:47:51.280Z,13.07
2019-03-18T03:50:27.187Z,13.67
2019-03-18T03:53:01.288Z,13.17
2019-03-18T03:55:34.878Z,11.40
2019-03-18T03:58:08.559Z,15.20
2019-03-18T04:00:42.252Z,13.47
2019-03-18T04:03:18.838Z,14.67
2019-03-18T04:05:52.567Z,13.63
2019-03-18T04:08:26.456Z,16.87
2019-03-18T04:11:02.485Z,11.87
2019-03-18T04:13:36.548Z,13.63
2019-03-18T04:16:10.325Z,12.83
2019-03-18T04:18:44.790Z,12.03
2019-03-18T04:21:18.209Z,12.90
2019-03-18T04:23:52.197Z,13.50
2019-03-18T04:26:25.713Z,13.33
2019-03-18T04:28:59.644Z,12.67
2019-03-18T04:31:33.343Z,10.83
2019-03-18T04:34:07.058Z,11.80
2019-03-18T04:36:40.560Z,11.63
2019-03-18T04:39:15.368Z,11.87
2019-03-18T04:41:48.994Z,12.13
2019-03-18T04:44:24.135Z,12.77
2019-03-18T04:46:58.146Z,14.70
2019-03-18T04:49:32.753Z,12.37
2019-03-18T04:52:06.281Z,15.03
2019-03-18T04:54:40.216Z,12.43
2019-03-18T04:57:13.552Z,13.87
2019-03-18T04:59:47.484Z,12.93
2019-03-18T05:02:22.089Z,14.13
2019-03-18T05:04:58.986Z,13.87
2019-03-18T05:07:32.610Z,13.07
2019-03-18T05:10:06.604Z,12.93
2019-03-18T05:12:40.615Z,14.23
2019-03-18T05:15:14.419Z,14.53
2019-03-18T05:17:48.305Z,14.03
2019-03-18T05:20:24.123Z,13.03
2019-03-18T05:22:57.643Z,12.80
2019-03-18T05:25:31.681Z,13.10
2019-03-18T05:28:05.448Z,12.33
2019-03-18T05:30:39.936Z,12.43
2019-03-18T05:33:16.363Z,14.67
2019-03-18T05:35:50.634Z,14.33
2019-03-18T05:38:25.321Z,12.63
2019-03-18T05:40:59.461Z,13.93
2019-03-18T05:43:33.041Z,12.87
2019-03-18T05:46:06.920Z,16.23
2019-03-18T05:48:46.652Z,13.97
2019-03-18T05:51:20.650Z,12.97
2019-03-18T05:53:54.376Z,14.40
2019-03-18T05:56:29.086Z,15.27
2019-03-18T05:59:04.101Z,16.23
2019-03-18T06:01:39.430Z,13.93
2019-03-18T06:04:13.803Z,12.87
2019-03-18T06:06:50.791Z,13.20
2019-03-18T06:09:24.860Z,13.17
2019-03-18T06:11:59.429Z,15.50
2019-03-18T06:14:33.020Z,14.67
2019-03-18T06:17:07.104Z,19.73
2019-03-18T06:19:41.238Z,14.47
2019-03-18T06:22:15.705Z,13.10
2019-03-18T06:24:51.992Z,16.57
2019-03-18T06:27:25.670Z,14.73
2019-03-18T06:29:59.491Z,16.07
2019-03-18T06:32:35.685Z,17.30
2019-03-18T06:35:10.815Z,17.30
2019-03-18T06:37:45.892Z,16.13
2019-03-18T06:40:19.961Z,14.63
2019-03-18T06:42:54.329Z,14.93
2019-03-18T06:45:28.210Z,15.57
2019-03-18T06:48:05.118Z,15.20
2019-03-18T06:50:39.379Z,16.93
2019-03-18T06:53:14.608Z,16.37
2019-03-18T06:55:50.571Z,16.00
2019-03-18T06:58:25.960Z,15.97
2019-03-18T07:01:00.481Z,17.30
2019-03-18T07:03:35.773Z,20.33
2019-03-18T07:06:12.253Z,19.37
2019-03-18T07:08:49.911Z,14.60
2019-03-18T07:11:23.669Z,16.90
2019-03-18T07:13:58.740Z,17.63
2019-03-18T07:16:32.977Z,15.67
2019-03-18T07:19:08.276Z,16.50
2019-03-18T07:21:46.155Z,13.30
2019-03-18T07:24:20.875Z,14.23
2019-03-18T07:26:57.292Z,13.53
2019-03-18T07:29:33.235Z,13.60
2019-03-18T07:32:08.514Z,14.67
2019-03-18T07:34:43.479Z,16.83
2019-03-18T07:37:20.697Z,14.23
2019-03-18T07:39:55.656Z,10.33
2019-03-18T07:42:29.998Z,11.27
2019-03-18T07:45:05.737Z,12.93
2019-03-18T07:47:40.793Z,13.67
2019-03-18T07:50:16.216Z,10.27
2019-03-18T07:52:52.407Z,10.43
2019-03-18T07:55:27.924Z,9.93
2019-03-18T07:58:03.301Z,12.93
2019-03-18T08:00:38.054Z,13.00
2019-03-18T08:03:12.584Z,14.37
2019-03-18T08:05:46.284Z,12.60
2019-03-18T08:08:21.542Z,10.73
2019-03-18T08:10:58.435Z,11.67
2019-03-18T08:13:34.002Z,9.90
2019-03-18T08:16:09.017Z,12.27
2019-03-18T08:18:43.649Z,12.80
2019-03-18T08:21:20.211Z,12.87
2019-03-18T08:23:54.933Z,11.00
2019-03-18T08:26:33.536Z,12.17
2019-03-18T08:29:09.075Z,14.97
2019-03-18T08:31:44.130Z,8.83
2019-03-18T08:34:20.561Z,9.93
2019-03-18T08:36:55.676Z,12.30
2019-03-18T08:39:30.063Z,13.60
2019-03-18T08:42:05.333Z,11.53
2019-03-18T08:44:41.954Z,13.33
2019-03-18T08:47:18.202Z,12.10
2019-03-18T08:49:54.864Z,13.37
2019-03-18T08:52:28.942Z,11.43
2019-03-18T08:55:05.700Z,12.47
2019-03-18T08:57:51.224Z,11.90
2019-03-18T09:00:27.798Z,12.27
2019-03-18T09:03:01.996Z,12.67
2019-03-18T09:05:36.702Z,12.67
2019-03-18T09:08:12.981Z,9.97
2019-03-18T09:10:47.558Z,11.20
2019-03-18T09:13:22.274Z,9.50
2019-03-18T09:15:56.030Z,13.70
2019-03-18T09:18:30.436Z,11.53
2019-03-18T09:21:04.799Z,13.57
2019-03-18T09:23:39.751Z,15.17
2019-03-18T09:26:16.265Z,12.40
2019-03-18T09:28:52.413Z,11.17
2019-03-18T09:31:29.370Z,8.73
2019-03-18T09:34:03.960Z,12.60
2019-03-18T09:36:38.863Z,11.03
2019-03-18T09:39:13.274Z,12.33
2019-03-18T09:41:49.151Z,10.17
2019-03-18T09:44:24.027Z,9.83
2019-03-18T09:47:03.443Z,10.30
2019-03-18T09:49:38.575Z,10.33
2019-03-18T09:52:13.984Z,8.00
2019-03-18T09:54:48.723Z,8.77
2019-03-18T09:57:26.273Z,7.70
2019-03-18T10:00:00.986Z,8.60
2019-03-18T10:02:36.720Z,9.67
2019-03-18T10:05:13.412Z,9.13
2019-03-18T10:07:47.499Z,11.57
2019-03-18T10:10:22.115Z,8.60
2019-03-18T10:12:58.225Z,6.57
2019-03-18T10:15:33.929Z,5.67
2019-03-18T10:18:08.781Z,4.60
2019-03-18T10:20:45.936Z,6.33
2019-03-18T10:23:21.184Z,8.00
2019-03-18T10:25:57.295Z,9.47
2019-03-18T10:28:32.951Z,8.07
2019-03-18T10:31:07.654Z,7.00
2019-03-18T10:33:44.974Z,9.07
2019-03-18T10:36:19.787Z,9.70
2019-03-18T10:38:53.256Z,8.97
2019-03-18T10:41:27.814Z,9.43
2019-03-18T10:44:01.632Z,8.97
2019-03-18T10:46:37.162Z,9.53
2019-03-18T10:49:12.740Z,9.50
2019-03-18T10:51:48.544Z,8.17
2019-03-18T10:54:30.764Z,9.23
2019-03-18T10:57:01.358Z,11.03
2019-03-18T10:59:36.932Z,9.97
2019-03-18T11:02:12.147Z,9.50
2019-03-18T11:04:48.114Z,9.27
2019-03-18T11:07:22.571Z,10.83
2019-03-18T11:09:59.141Z,7.67
2019-03-18T11:12:34.584Z,7.53
2019-03-18T11:15:10.235Z,8.77
2019-03-18T11:17:45.982Z,8.20
2019-03-18T11:20:21.954Z,7.53
2019-03-18T11:22:57.180Z,7.07
2019-03-18T11:25:31.573Z,9.87
2019-03-18T11:28:06.918Z,7.37
2019-03-18T11:30:42.998Z,8.70
2019-03-18T11:33:20.711Z,7.27
2019-03-18T11:35:56.418Z,6.53
2019-03-18T11:38:35.114Z,6.67
2019-03-18T11:41:12.270Z,9.73
2019-03-18T11:43:46.349Z,7.00
2019-03-18T11:46:20.935Z,7.80
2019-03-18T11:48:55.928Z,6.90
2019-03-18T11:51:30.172Z,7.17
2019-03-18T11:54:06.715Z,6.93
2019-03-18T11:56:40.388Z,6.93
2019-03-18T11:59:20.824Z,9.67
2019-03-18T12:01:55.678Z,7.70
2019-03-18T12:04:32.800Z,8.40
2019-03-18T12:07:07.855Z,7.43
2019-03-18T12:09:42.846Z,7.20
2019-03-18T12:12:18.564Z,6.37
2019-03-18T12:14:53.225Z,6.90
2019-03-18T12:17:31.602Z,6.73
2019-03-18T12:20:09.805Z,5.87
2019-03-18T12:22:45.440Z,5.27
2019-03-18T12:25:22.987Z,6.10
2019-03-18T12:27:57.485Z,5.53
2019-03-18T12:30:32.280Z,6.57
2019-03-18T12:33:09.508Z,6.00
2019-03-18T12:35:45.265Z,6.03
2019-03-18T12:38:20.896Z,6.50
2019-03-18T12:40:54.892Z,6.43
2019-03-18T12:43:28.827Z,6.80
2019-03-18T12:46:03.928Z,7.73
2019-03-18T12:48:38.433Z,6.23
2019-03-18T12:51:13.034Z,6.80
2019-03-18T12:53:49.944Z,5.10
2019-03-18T12:56:25.021Z,5.50
2019-03-18T12:59:01.650Z,5.47
2019-03-18T13:01:36.910Z,5.60
2019-03-18T13:04:13.547Z,4.90
2019-03-18T13:06:49.046Z,5.27
2019-03-18T13:09:23.083Z,4.73
2019-03-18T13:11:58.962Z,5.10
2019-03-18T13:14:33.563Z,3.93
2019-03-18T13:17:08.538Z,4.50
2019-03-18T13:19:42.768Z,5.10
2019-03-18T13:22:21.738Z,4.50
2019-03-18T13:24:55.829Z,4.97
2019-03-18T13:27:30.278Z,4.80
2019-03-18T13:30:15.282Z,4.13
2019-03-18T13:32:48.422Z,4.30
2019-03-18T13:35:24.087Z,5.20
2019-03-18T13:37:59.789Z,5.50
2019-03-18T13:40:35.601Z,4.23
2019-03-18T13:43:11.417Z,4.97
2019-03-18T13:45:54.720Z,5.17
2019-03-18T13:48:21.397Z,4.97
2019-03-18T13:50:57.705Z,4.43
2019-03-18T13:53:34.080Z,4.30
2019-03-18T13:56:10.247Z,4.20
2019-03-18T13:58:47.074Z,4.00
2019-03-18T14:01:22.863Z,4.50
2019-03-18T14:03:57.529Z,4.87
2019-03-18T14:06:31.369Z,5.97
2019-03-18T14:09:07.634Z,4.73
2019-03-18T14:11:43.572Z,5.40
2019-03-18T14:14:18.576Z,4.33
2019-03-18T14:16:53.022Z,5.03
2019-03-18T14:19:28.713Z,4.70
2019-03-18T14:22:03.461Z,3.87
2019-03-18T14:24:43.246Z,5.17
2019-03-18T14:27:16.715Z,4.10
2019-03-18T14:29:52.148Z,4.40
2019-03-18T14:32:26.724Z,5.33
2019-03-18T14:35:04.009Z,4.47
2019-03-18T14:37:39.654Z,4.57
2019-03-18T14:40:14.825Z,4.23
2019-03-18T14:42:48.262Z,4.03
2019-03-18T14:45:23.346Z,3.87
2019-03-18T14:47:57.212Z,4.20
2019-03-18T14:50:32.023Z,5.53
2019-03-18T14:53:06.263Z,4.20
2019-03-18T14:55:42.410Z,5.43
2019-03-18T14:58:16.807Z,3.33
2019-03-18T15:00:53.177Z,4.60
2019-03-18T15:03:27.952Z,5.93
2019-03-18T15:06:02.388Z,4.80
2019-03-18T15:08:37.609Z,5.27
2019-03-18T15:11:14.043Z,3.50
2019-03-18T15:13:51.322Z,3.73
2019-03-18T15:16:26.050Z,3.73
2019-03-18T15:19:01.756Z,3.83
2019-03-18T15:21:38.434Z,4.57
2019-03-18T15:24:17.294Z,7.67
2019-03-18T15:26:49.291Z,4.17
2019-03-18T15:29:22.525Z,7.27
2019-03-18T15:32:01.422Z,4.83
2019-03-18T15:34:34.988Z,5.70
2019-03-18T15:37:10.400Z,10.70
2019-03-18T15:39:49.501Z,5.33
2019-03-18T15:42:25.678Z,4.17
2019-03-18T15:45:03.020Z,3.43
2019-03-18T15:47:37.395Z,3.60
2019-03-18T15:50:14.063Z,5.30
2019-03-18T15:52:48.413Z,4.97
2019-03-18T15:55:26.763Z,4.60
2019-03-18T15:58:02.151Z,4.17
2019-03-18T16:00:37.950Z,4.27
2019-03-18T16:03:14.262Z,2.90
2019-03-18T16:05:48.758Z,3.83
2019-03-18T16:08:23.166Z,4.60
2019-03-18T16:10:57.819Z,4.53
2019-03-18T16:13:34.259Z,4.17
2019-03-18T16:16:09.124Z,4.67
2019-03-18T16:18:45.201Z,6.30
2019-03-18T16:21:21.787Z,5.53
2019-03-18T16:24:04.111Z,4.17
2019-03-18T16:26:37.888Z,6.40
2019-03-18T16:29:14.190Z,5.93
2019-03-18T16:31:49.139Z,3.47
2019-03-18T16:34:25.878Z,5.00
2019-03-18T16:37:03.828Z,6.53
2019-03-18T16:39:39.103Z,5.33
2019-03-18T16:42:18.464Z,7.23
2019-03-18T16:44:53.527Z,5.03
2019-03-18T16:47:27.426Z,4.13
2019-03-18T16:50:11.005Z,6.40
2019-03-18T16:52:45.097Z,5.80
2019-03-18T16:55:19.601Z,5.60
2019-03-18T16:57:51.966Z,4.77
2019-03-18T17:00:25.885Z,4.93
2019-03-18T17:03:00.586Z,3.93
2019-03-18T17:05:37.630Z,5.10
2019-03-18T17:08:14.679Z,5.10
2019-03-18T17:10:50.403Z,4.40
2019-03-18T17:13:26.548Z,4.67
2019-03-18T17:16:02.622Z,5.10
2019-03-18T17:18:40.020Z,4.50
2019-03-18T17:21:16.086Z,5.13
2019-03-18T17:23:55.758Z,5.33
2019-03-18T17:26:31.180Z,4.63
2019-03-18T17:29:05.317Z,5.90
2019-03-18T17:31:41.390Z,6.00
2019-03-18T17:34:15.794Z,5.90
2019-03-18T17:36:51.605Z,4.97
2019-03-18T17:39:29.207Z,6.13
2019-03-18T17:42:03.701Z,6.60
2019-03-18T17:44:39.203Z,4.67
2019-03-18T17:47:14.013Z,5.23
2019-03-18T17:49:46.285Z,4.50
2019-03-18T17:52:22.213Z,5.00
2019-03-18T17:54:56.485Z,6.50
2019-03-18T17:57:33.778Z,7.87
2019-03-18T18:00:09.894Z,6.80
2019-03-18T18:02:44.638Z,7.17
2019-03-18T18:05:20.272Z,7.67
2019-03-18T18:07:55.575Z,8.87
2019-03-18T18:10:29.460Z,10.50
2019-03-18T18:13:05.439Z,12.13
2019-03-18T18:15:42.874Z,10.17
2019-03-18T18:18:17.415Z,9.77
2019-03-18T18:20:51.313Z,10.57
2019-03-18T18:23:26.266Z,9.93
2019-03-18T18:26:04.082Z,8.77
2019-03-18T18:28:40.909Z,6.93
2019-03-18T18:31:15.470Z,6.93
2019-03-18T18:33:50.574Z,8.20
2019-03-18T18:36:25.490Z,8.20
2019-03-18T18:39:00.062Z,7.10
2019-03-18T18:41:34.170Z,6.60
2019-03-18T18:44:09.052Z,7.13
2019-03-18T18:46:43.337Z,7.33
2019-03-18T18:49:20.460Z,9.60
2019-03-18T18:51:55.136Z,8.10
2019-03-18T18:54:29.710Z,8.83
2019-03-18T18:57:06.141Z,8.23
2019-03-18T18:59:40.892Z,8.00
2019-03-18T19:02:15.361Z,7.13
2019-03-18T19:04:49.474Z,7.57
2019-03-18T19:07:39.766Z,12.53
2019-03-18T19:10:16.469Z,10.60
2019-03-18T19:12:52.206Z,10.97
2019-03-18T19:15:26.946Z,8.87
2019-03-18T19:18:04.695Z,9.07
2019-03-18T19:20:39.348Z,10.27
2019-03-18T19:23:13.390Z,11.57
2019-03-18T19:25:49.054Z,11.97
2019-03-18T19:28:22.743Z,11.37
2019-03-18T19:30:57.013Z,9.13
2019-03-18T19:33:31.477Z,10.33
2019-03-18T19:36:09.291Z,7.13
2019-03-18T19:38:47.032Z,8.37
2019-03-18T19:41:21.648Z,10.53
2019-03-18T19:43:55.538Z,10.57
2019-03-18T19:46:29.824Z,10.77
2019-03-18T19:49:05.177Z,8.30
2019-03-18T19:51:41.627Z,8.33
2019-03-18T19:54:16.153Z,10.27
2019-03-18T19:56:51.042Z,8.23
2019-03-18T19:59:25.325Z,9.37
2019-03-18T20:01:59.884Z,9.00
2019-03-18T20:04:35.632Z,14.27
2019-03-18T20:07:13.312Z,14.20
2019-03-18T20:09:53.217Z,11.03
2019-03-18T20:12:29.855Z,12.23
2019-03-18T20:15:03.961Z,10.50
2019-03-18T20:17:39.068Z,11.43
2019-03-18T20:20:17.831Z,13.83
2019-03-18T20:22:53.209Z,13.00
2019-03-18T20:25:29.723Z,16.20
2019-03-18T20:28:04.662Z,13.77
2019-03-18T20:30:39.022Z,16.67
2019-03-18T20:33:13.243Z,17.90
2019-03-18T20:35:47.013Z,16.67
2019-03-18T20:38:24.195Z,15.83
2019-03-18T20:40:58.967Z,17.77
2019-03-18T20:43:33.233Z,15.00
2019-03-18T20:46:08.016Z,17.90
2019-03-18T20:48:43.011Z,17.47
2019-03-18T20:51:18.914Z,17.03
2019-03-18T20:53:53.447Z,19.87
2019-03-18T20:56:27.516Z,15.73
2019-03-18T20:59:06.494Z,17.63
2019-03-18T21:01:42.890Z,19.40
2019-03-18T21:04:18.729Z,20.63
2019-03-18T21:06:54.712Z,18.17
2019-03-18T21:09:28.957Z,15.57
2019-03-18T21:12:02.911Z,15.67
2019-03-18T21:14:37.979Z,15.07
2019-03-18T21:17:12.677Z,14.80
2019-03-18T21:19:46.950Z,14.60
2019-03-18T21:22:23.376Z,12.90
2019-03-18T21:24:57.475Z,9.40
2019-03-18T21:27:31.687Z,9.80
2019-03-18T21:30:06.639Z,10.27
2019-03-18T21:32:40.689Z,16.43
2019-03-18T21:35:17.683Z,17.07
2019-03-18T21:37:52.458Z,22.30
2019-03-18T21:40:30.921Z,20.20
2019-03-18T21:43:07.253Z,18.10
2019-03-18T21:45:41.807Z,21.23
2019-03-18T21:48:15.462Z,17.47
2019-03-18T21:50:49.989Z,19.87
2019-03-18T21:53:27.108Z,19.03
2019-03-18T21:56:01.416Z,19.37
2019-03-18T21:58:35.884Z,16.43
2019-03-18T22:01:10.127Z,17.87
2019-03-18T22:03:43.926Z,16.70
2019-03-18T22:06:19.626Z,17.43
2019-03-18T22:08:53.793Z,15.30
2019-03-18T22:11:27.984Z,14.90
2019-03-18T22:14:02.993Z,17.60
2019-03-18T22:16:37.399Z,17.30
2019-03-18T22:19:11.307Z,15.20
2019-03-18T22:21:45.577Z,15.07
2019-03-18T22:24:19.912Z,14.27
2019-03-18T22:26:54.708Z,12.93
2019-03-18T22:29:28.503Z,11.33
2019-03-18T22:32:03.807Z,13.67
2019-03-18T22:34:37.638Z,14.57
2019-03-18T22:37:11.822Z,13.80
2019-03-18T22:39:45.634Z,14.37
2019-03-18T22:42:22.339Z,11.93
2019-03-18T22:44:55.803Z,11.77
2019-03-18T22:47:30.296Z,12.70
2019-03-18T22:50:07.223Z,12.03
2019-03-18T22:52:41.293Z,9.90
2019-03-18T22:55:15.360Z,11.43
2019-03-18T22:57:49.667Z,10.13
2019-03-18T23:00:34.111Z,12.23
2019-03-18T23:03:08.691Z,12.00
2019-03-18T23:05:42.336Z,10.97
2019-03-18T23:08:16.141Z,11.07
2019-03-18T23:10:52.523Z,14.20
2019-03-18T23:13:27.734Z,11.90
2019-03-18T23:16:01.523Z,11.80
2019-03-18T23:18:37.098Z,11.50
2019-03-18T23:21:10.567Z,10.20
2019-03-18T23:23:44.830Z,9.53
2019-03-18T23:26:18.562Z,10.20
2019-03-18T23:28:52.647Z,9.30
2019-03-18T23:31:28.434Z,7.90
2019-03-18T23:34:02.731Z,7.63
2019-03-18T23:36:36.522Z,11.13
2019-03-18T23:39:11.712Z,7.47
2019-03-18T23:41:45.463Z,7.23
2019-03-18T23:44:23.231Z,8.90
2019-03-18T23:47:04.052Z,7.27
2019-03-18T23:49:38.593Z,7.23
2019-03-18T23:52:12.395Z,6.87
2019-03-18T23:54:47.613Z,6.97
2019-03-18T23:57:21.747Z,7.67
2019-03-18T23:59:55.963Z,12.13
